Flight Track Log - Related Links

Times and Time Zones

All times are in EDT time to prevent confusion due to time zone crossing. See the AAL1292 flight status page for this flight to view local times or setup timezone preferences in your user account.

Time Position Orientation Groundspeed Altitude Reporting Facility
EDT Latitude Longitude Course Direction KTS MPH feet Rate Location/Type
Tue 03:46:36 PM 32.8833 -97.0333 64° Northeast 166 191 1,400  Level Dallas / Fort Worth TRACON
Tue 03:47:37 PM 32.8333 -97.0167 164° South 230 265 3,400 2,281 Climbing Dallas / Fort Worth TRACON
Tue 03:48:37 PM 32.7667 -96.9667 148° Southeast 268 308 6,000 2,650 Climbing Dallas / Fort Worth TRACON
Tue 03:49:00 PM 32.7963 -96.7278 68° East  Level FlightAware Approximate
Tue 03:49:37 PM 32.7667 -96.8833 90° East 292 336 8,700  Level Dallas / Fort Worth TRACON
Tue 03:50:00 PM 32.8460 -96.6022 62° Northeast  Level FlightAware Approximate
Tue 03:51:00 PM 32.9015 -96.4796 64° Northeast  Level FlightAware Approximate
Tue 03:51:27 PM 32.8147 -96.7189 71° East 304 350 11,400  Level Fort Worth Center
Tue 03:52:27 PM 32.8664 -96.6022 62° Northeast 342 394 13,900 2,400 Climbing Fort Worth Center
Tue 03:53:27 PM 32.9114 -96.4831 66° East 378 435 16,200 2,150 Climbing Fort Worth Center
Tue 03:54:27 PM 32.9583 -96.3636 65° Northeast 393 452 18,200 2,050 Climbing Fort Worth Center
Tue 03:55:27 PM 32.9864 -96.2272 76° East 411 473 20,300 1,850 Climbing Fort Worth Center
Tue 03:56:27 PM 33.0058 -96.0856 81° East 422 486 21,900 1,700 Climbing Fort Worth Center
Tue 03:57:27 PM 33.0250 -95.9367 81° East 445 512 23,700 1,550 Climbing Fort Worth Center
Tue 03:58:27 PM 33.0464 -95.7900 80° East 450 518 25,000 1,450 Climbing Fort Worth Center
Tue 03:59:27 PM 33.0672 -95.6336 81° East 466 536 26,600 1,450 Climbing Fort Worth Center
Tue 04:00:27 PM 33.0961 -95.4792 77° East 473 544 27,900 1,050 Climbing Fort Worth Center
Tue 04:01:27 PM 33.1439 -95.3319 69° East 473 544 28,700 550 Climbing Fort Worth Center
Tue 04:02:27 PM 33.1853 -95.1819 72° East 473 544 29,000 150 Climbing Fort Worth Center
Tue 04:03:27 PM 33.2325 -95.0342 69° East 468 539 29,000  Level Fort Worth Center
Tue 04:04:27 PM 33.2778 -94.8864 70° East 468 539 29,000  Level Fort Worth Center
Tue 04:05:27 PM 33.3206 -94.7336 71° East 468 539 29,000  Level Fort Worth Center
Tue 04:06:27 PM 33.3653 -94.5881 70° East 468 539 29,000  Level Fort Worth Center
Tue 04:07:27 PM 33.4097 -94.4372 71° East 468 539 29,000  Level Fort Worth Center
Tue 04:08:27 PM 33.4542 -94.2889 70° East 468 539 29,000  Level Fort Worth Center
Tue 04:09:27 PM 33.4964 -94.1381 71° East 468 539 29,000  Level Fort Worth Center
Tue 04:10:27 PM 33.5428 -94.0067 67° East 468 539 29,000  Level Fort Worth Center
Tue 04:11:27 PM 33.5994 -93.8622 65° Northeast 468 539 29,000  Level Fort Worth Center
Tue 04:12:27 PM 33.6536 -93.7203 65° Northeast 468 539 29,000  Level Fort Worth Center
Tue 04:13:27 PM 33.7078 -93.5783 65° Northeast 463 533 29,000  Level Fort Worth Center
Tue 04:14:27 PM 33.7619 -93.4386 65° Northeast 463 533 29,000  Level Fort Worth Center
Tue 04:14:56 PM 33.7944 -93.3567 64° Northeast 465 535 29,000  Level Memphis Center
Tue 04:15:56 PM 33.8481 -93.2133 66° East 465 535 29,000  Level Memphis Center
Tue 04:16:56 PM 33.9011 -93.0725 66° East 460 529 29,000  Level Memphis Center
Tue 04:17:56 PM 33.9564 -92.9292 65° Northeast 460 529 29,000  Level Memphis Center
Tue 04:18:56 PM 34.0114 -92.7928 64° Northeast 454 522 29,000  Level Memphis Center
Tue 04:19:56 PM 34.0619 -92.6489 67° East 454 522 29,000  Level Memphis Center
Tue 04:20:56 PM 34.1061 -92.5194 68° East 454 522 29,000  Level Memphis Center
Tue 04:21:56 PM 34.1586 -92.3778 66° East 454 522 29,000  Level Memphis Center
Tue 04:22:56 PM 34.2108 -92.2333 66° East 459 528 29,000  Level Memphis Center
Tue 04:23:56 PM 34.2650 -92.0939 65° Northeast 454 522 29,000  Level Memphis Center
Tue 04:24:56 PM 34.3169 -91.9539 66° East 454 522 29,000  Level Memphis Center
Tue 04:25:56 PM 34.3667 -91.8114 67° East 454 522 29,000  Level Memphis Center
Tue 04:26:56 PM 34.4183 -91.6614 67° East 449 517 29,000  Level Memphis Center
Tue 04:27:56 PM 34.4742 -91.5211 64° Northeast 449 517 29,000  Level Memphis Center
Tue 04:28:56 PM 34.5233 -91.3831 67° East 454 522 29,000  Level Memphis Center
Tue 04:29:56 PM 34.5767 -91.2375 66° East 454 522 29,000  Level Memphis Center
Tue 04:30:56 PM 34.6275 -91.0967 66° East 454 522 29,000  Level Memphis Center
Tue 04:31:56 PM 34.6764 -90.9556 67° East 454 522 29,000  Level Memphis Center
Tue 04:32:56 PM 34.7269 -90.8169 66° East 454 522 29,000  Level Memphis Center
Tue 04:33:56 PM 34.7711 -90.6908 67° East 454 522 29,000  Level Memphis Center
Tue 04:34:56 PM 34.8194 -90.5519 67° East 449 517 29,000 -200 Level Memphis Center
Tue 04:35:56 PM 34.8675 -90.4128 67° East 449 517 28,600 -700 Descending Memphis Center
Tue 04:36:56 PM 34.9197 -90.2711 66° East 449 517 27,600 -800 Descending Memphis Center
Tue 04:37:56 PM 34.9675 -90.1264 68° East 456 525 27,000 -300 Descending Memphis Center
Tue 04:38:56 PM 35.0214 -89.9717 67° East 456 525 27,000  Level Memphis Center
Tue 04:39:56 PM 35.0731 -89.8267 66° East 456 525 27,000  Level Memphis Center
Tue 04:40:56 PM 35.1203 -89.6819 68° East 456 525 27,000  Level Memphis Center
Tue 04:41:56 PM 35.1672 -89.5392 68° East 456 525 27,000 -500 Level Memphis Center
Tue 04:42:56 PM 35.2081 -89.4142 68° East 451 519 26,000 -1,100 Descending Memphis Center
Tue 04:43:56 PM 35.2528 -89.2739 69° East 446 513 24,800 -950 Descending Memphis Center
Tue 04:44:56 PM 35.2975 -89.1383 68° East 432 497 24,100 -400 Descending Memphis Center
Tue 04:45:56 PM 35.3419 -89.0028 68° East 426 490 24,000 -50 Descending Memphis Center
Tue 04:46:56 PM 35.3864 -88.8697 68° East 426 490 24,000  Level Memphis Center
Tue 04:47:56 PM 35.4325 -88.7211 69° East 426 490 24,000  Level Memphis Center
Tue 04:48:56 PM 35.4764 -88.5878 68° East 426 490 24,000 -150 Level Memphis Center
Tue 04:49:56 PM 35.5183 -88.4517 69° East 421 484 23,700 -700 Descending Memphis Center
Tue 04:50:56 PM 35.5619 -88.3178 68° East 421 484 22,600 -1,000 Descending Memphis Center
Tue 04:51:56 PM 35.6078 -88.1839 67° East 414 476 21,700 -900 Descending Memphis Center
Tue 04:52:56 PM 35.6472 -88.0603 69° East 407 468 20,800 -1,200 Descending Memphis Center
Tue 04:53:56 PM 35.6864 -87.9314 69° East 402 463 19,300 -1,500 Descending Memphis Center
Tue 04:55:00 PM 35.7220 -87.7902 71° East  Level FlightAware Approximate
Tue 04:55:56 PM 35.7606 -87.6836 71° East 386 444 16,300  Level Memphis Center
Tue 04:56:56 PM 35.7997 -87.5622 68° East 379 436 14,800 -1,550 Descending Memphis Center
Tue 04:57:56 PM 35.8367 -87.4508 68° East 366 421 13,200 -1,650 Descending Memphis Center
Tue 04:58:56 PM 35.8781 -87.3442 64° Northeast 346 398 11,500 -1,400 Descending Memphis Center
Tue 04:59:56 PM 35.9089 -87.2483 68° East 314 361 10,400 -1,300 Descending Memphis Center
Tue 05:00:56 PM 35.9253 -87.1528 78° East 287 330 8,900 -1,550 Descending Memphis Center
Tue 05:01:56 PM 35.9353 -87.0550 83° East 281 323 7,300 -1,500 Descending Memphis Center
Tue 05:02:56 PM 35.9264 -86.9631 97° East 269 310 5,900 -1,050 Descending Memphis Center
Tue 05:03:56 PM 35.9075 -86.8819 106° East 258 297 5,200 -900 Descending Memphis Center
Tue 05:04:56 PM 35.8953 -86.8131 102° East 242 278 4,100 -900 Descending Memphis Center
Tue 05:05:56 PM 35.9311 -86.7553 53° Northeast 197 227 3,400 -700 Descending Memphis Center

Login

Don't have an account? Register now (free) for customized features, flight alerts, and more!